Historyczne dane pomiarowe

Dodano dane terminowe – wersja testowa.

Dane z okresu 1951-2019

Wersja bazy: 1.34 [2019-03-16, lista zmian], aktualizacja planowana na 2019-04-15

Dane meteo z obszaru Polski uzyskane na podstawie danych udostępnionych przez Instytut Meteorologii i Gospodarki Wodnej – Państwowy Instytut Badawczy.

 

Wybierz Datę:    

       

TemperaturaWilgotnośćZachmurzenieWiatrCiśnienieWidzialnośćZjawiska
 Data    tng td wb rh cc ccl cl cm ch dir g1 g2 mslp ppp      
1999-06-18 00:00:00 16.4--- 15.4 15.894wxwxwx3wx--1013.3 989.0 0.0---wx
1999-06-18 01:00:00 16.3--- 15.3 15.794wxwxwx2wx--1013.0 988.7----wx
1999-06-18 02:00:00 16.2--- 15.4 15.795wxwxwxwx2wx--1012.8 988.5----wx
1999-06-18 03:00:00 16.3--- 15.7 15.996wxwxwxwx3wx--1012.6 988.3----wx
1999-06-18 04:00:00 16.2--- 15.7 15.997wxwxwxwx2wx--1012.5 988.2----wxw1
1999-06-18 05:00:00 16.6--- 16.0 16.296wxwxwxwx2wx--1012.4 988.1----wx
1999-06-18 06:00:00 16.8--- 15.8 16.294wxwxwxwx3wx--1012.5 988.3 4.1---wxw1
1999-06-18 07:00:00 16.5--- 15.7 16.095wxwxwxwx2wx--1012.7 988.4----wxw1
1999-06-18 08:00:00 16.2--- 15.4 15.795wxwxwxwx3wx--1012.7 988.4----wxw1
1999-06-18 09:00:00 16.4--- 15.6 15.995wxwxwxwx3wx--1013.1 988.8----wxw1
1999-06-18 10:00:00 16.2--- 15.6 15.896wxwxwxwx4wx--1013.3 989.0----wxw1
1999-06-18 11:00:00 15.4--- 14.7 15.096wxwxwxwx6wx--1013.4 989.0----wxw1
1999-06-18 12:00:00 15.6--- 14.9 15.296wxwxwxwx5wx--1013.3 988.9 32.0---wxw1
1999-06-18 13:00:00 15.6--- 15.1 15.397wxwxwxwx6wx--1013.3 988.9----wxw1
1999-06-18 14:00:00 15.2--- 14.5 14.896wxwxwxwx5wx--1013.5 989.1----wxw1
1999-06-18 15:00:00 15.1--- 14.4 14.796wxwxwxwx7wx--1013.9 989.5----wxw1
1999-06-18 16:00:00 15.0--- 14.2 14.595wxwxwxwx8wx--1013.7 989.3----wxw1
1999-06-18 17:00:00 14.4--- 13.6 13.995wxwxwxwx8wx--1014.0 989.5----wxw1
1999-06-18 18:00:00 14.3--- 13.3 13.794wxwxwxwx6wx--1014.5 990.0 1.8---wxw1
1999-06-18 19:00:00 14.2--- 13.4 13.795wxwxwxwx6wx--1015.1 990.6----wxw1
1999-06-18 20:00:00 13.9--- 13.2 13.596wxwxwxwx6wx--1015.3 990.8----wxw1
1999-06-18 21:00:00 13.8--- 13.0 13.395wxwxwxwx5wx--1015.7 991.1----wxw1
1999-06-18 22:00:00 13.7--- 13.0 13.396wxwxwxwx5wx--1015.4 990.8----wxw1
1999-06-18 23:00:00 13.5--- 12.6 13.095wxwxwxwx3wx--1015.5 990.9----wx

 

Źródłem pochodzenia danych jest Instytut Meteorologii i Gospodarki Wodnej – Państwowy Instytut Badawczy. Dane Instytutu Meteorologii i Gospodarki Wodnej – Państwowego Instytutu Badawczego zostały przetworzone.

Dane źródłowe można odnaleźć na stronie https://dane.imgw.pl